RXA6117 YMER-YMRY

Flight info

Callsign RXA6117
Flight time 0h 21m
Altitude 10000
Route MER W436 URBOB
Aircraft SF34/M-SDFGR/S

Departure

Time 2026-04-20 08:19
Airport Merimbula Airport (YMER)

Arrival

Time 2026-04-20 08:41
Airport Moruya Airport (YMRY)
Time Latitude Longitude Altitude Speed Heading
2026-04-20 08:16 -36.90914 149.90140 12 ft 0 kts 288°
2026-04-20 08:16 -36.90910 149.90133 12 ft 8 kts 302°
2026-04-20 08:16 -36.90838 149.90029 12 ft 6 kts 354°
2026-04-20 08:17 -36.90739 149.90111 11 ft 32 kts 34°
2026-04-20 08:17 -36.90487 149.90332 13 ft 56 kts 35°
2026-04-20 08:17 -36.90382 149.90421 13 ft 12 kts 34°
2026-04-20 08:17 -36.90257 149.90531 9 ft 31 kts 37°
2026-04-20 08:18 -36.90142 149.90623 9 ft 10 kts 349°
2026-04-20 08:18 -36.90141 149.90623 9 ft 1 kts 213°
2026-04-20 08:18 -36.90217 149.90553 9 ft 42 kts 214°
2026-04-20 08:18 -36.90693 149.90149 18 ft 120 kts 214°
2026-04-20 08:19 -36.91471 149.89441 457 ft 150 kts 214°
2026-04-20 08:19 -36.92216 149.88423 1074 ft 175 kts 249°
2026-04-20 08:19 -36.92135 149.86876 1667 ft 196 kts 295°
2026-04-20 08:19 -36.91134 149.85666 2256 ft 211 kts 336°
2026-04-20 08:20 -36.89668 149.85474 2841 ft 217 kts 13°
2026-04-20 08:20 -36.88403 149.86416 3433 ft 214 kts 49°
2026-04-20 08:20 -36.87524 149.87925 4012 ft 216 kts 57°
2026-04-20 08:20 -36.86686 149.89501 4592 ft 220 kts 59°
2026-04-20 08:21 -36.85810 149.91072 5178 ft 222 kts 51°
2026-04-20 08:21 -36.84485 149.92081 5725 ft 230 kts 16°
2026-04-20 08:21 -36.82876 149.92187 6298 ft 234 kts 359°
2026-04-20 08:21 -36.81243 149.92347 6874 ft 238 kts 12°
2026-04-20 08:22 -36.79627 149.92810 7430 ft 239 kts 15°
2026-04-20 08:22 -36.78012 149.93232 7980 ft 242 kts 11°
2026-04-20 08:22 -36.76345 149.93594 8550 ft 244 kts 12°
2026-04-20 08:22 -36.74677 149.94011 9130 ft 245 kts 13°
2026-04-20 08:23 -36.73000 149.94421 9721 ft 246 kts 12°
2026-04-20 08:23 -36.71307 149.94821 10254 ft 252 kts 12°
2026-04-20 08:23 -36.69524 149.95258 10342 ft 270 kts 12°
2026-04-20 08:23 -36.67632 149.95710 10346 ft 282 kts 12°
2026-04-20 08:24 -36.65682 149.96178 10352 ft 288 kts 12°
2026-04-20 08:24 -36.63709 149.96657 10357 ft 291 kts 12°
2026-04-20 08:24 -36.61743 149.97128 10354 ft 292 kts 12°
2026-04-20 08:24 -36.59744 149.97610 10354 ft 293 kts 12°
2026-04-20 08:25 -36.57746 149.98092 10353 ft 293 kts 12°
2026-04-20 08:25 -36.55767 149.98569 10353 ft 288 kts 12°
2026-04-20 08:25 -36.53808 149.99043 10351 ft 285 kts 12°
2026-04-20 08:25 -36.51865 149.99507 10353 ft 284 kts 12°
2026-04-20 08:26 -36.49926 149.99973 10348 ft 284 kts 12°
2026-04-20 08:26 -36.47986 150.00440 10347 ft 284 kts 12°
2026-04-20 08:26 -36.46047 150.00903 10347 ft 284 kts 12°
2026-04-20 08:26 -36.44135 150.01363 10347 ft 284 kts 12°
2026-04-20 08:27 -36.42196 150.01828 10346 ft 284 kts 12°
2026-04-20 08:27 -36.40254 150.02292 10344 ft 284 kts 12°
2026-04-20 08:27 -36.38312 150.02758 10345 ft 284 kts 12°
2026-04-20 08:27 -36.36366 150.03223 10343 ft 284 kts 12°
2026-04-20 08:28 -36.34425 150.03686 10342 ft 284 kts 12°
2026-04-20 08:28 -36.32484 150.04152 10344 ft 284 kts 12°
2026-04-20 08:28 -36.30540 150.04618 10342 ft 285 kts 12°
2026-04-20 08:28 -36.28622 150.05072 10341 ft 284 kts 12°
2026-04-20 08:29 -36.26683 150.05537 10338 ft 284 kts 12°
2026-04-20 08:29 -36.24740 150.06000 10333 ft 284 kts 12°
2026-04-20 08:29 -36.22796 150.06464 10332 ft 285 kts 12°
2026-04-20 08:29 -36.20850 150.06927 10330 ft 285 kts 12°
2026-04-20 08:30 -36.18903 150.07390 10333 ft 285 kts 13°
2026-04-20 08:30 -36.16961 150.07858 10332 ft 285 kts 12°
2026-04-20 08:30 -36.15013 150.08315 10335 ft 285 kts 12°
2026-04-20 08:30 -36.13067 150.08780 10335 ft 285 kts 13°
2026-04-20 08:31 -36.11161 150.09301 10339 ft 284 kts 21°
2026-04-20 08:31 -36.09449 150.10482 10038 ft 275 kts 39°
2026-04-20 08:31 -36.07985 150.11874 9640 ft 258 kts 41°
2026-04-20 08:31 -36.06595 150.13235 9251 ft 252 kts 42°
2026-04-20 08:32 -36.05230 150.14580 8855 ft 250 kts 42°
2026-04-20 08:32 -36.03856 150.15881 8476 ft 249 kts 37°
2026-04-20 08:32 -36.02349 150.16945 8095 ft 249 kts 31°
2026-04-20 08:32 -36.00820 150.17940 7726 ft 248 kts 30°
2026-04-20 08:33 -35.99297 150.18925 7360 ft 247 kts 30°
2026-04-20 08:33 -35.96275 150.20811 6633 ft 245 kts 25°
2026-04-20 08:33 -35.94700 150.21596 6247 ft 243 kts 23°
2026-04-20 08:34 -35.93137 150.22359 5865 ft 240 kts 23°
2026-04-20 08:34 -35.91596 150.23118 5481 ft 237 kts 23°
2026-04-20 08:34 -35.90070 150.23876 5110 ft 235 kts 23°
2026-04-20 08:34 -35.88532 150.24520 4727 ft 233 kts 16°
2026-04-20 08:35 -35.86964 150.25003 4344 ft 231 kts 15°
2026-04-20 08:35 -35.85388 150.25324 3963 ft 229 kts
2026-04-20 08:35 -35.83798 150.25436 3586 ft 228 kts
2026-04-20 08:35 -35.82256 150.25524 3392 ft 221 kts
2026-04-20 08:36 -35.80742 150.25517 3339 ft 216 kts 351°
2026-04-20 08:36 -35.79344 150.24935 3327 ft 211 kts 324°
2026-04-20 08:36 -35.78463 150.23577 3326 ft 203 kts 287°
2026-04-20 08:36 -35.78414 150.21909 3336 ft 192 kts 250°
2026-04-20 08:37 -35.78782 150.20357 3277 ft 174 kts 249°
2026-04-20 08:37 -35.79105 150.19132 3079 ft 134 kts 244°
2026-04-20 08:37 -35.79513 150.18221 2774 ft 113 kts 227°
2026-04-20 08:37 -35.80005 150.17529 2508 ft 102 kts 214°
2026-04-20 08:38 -35.80697 150.17073 2439 ft 120 kts 205°
2026-04-20 08:38 -35.81412 150.16703 2165 ft 105 kts 198°
2026-04-20 08:38 -35.82111 150.16466 1977 ft 112 kts 192°
2026-04-20 08:38 -35.82868 150.16269 1734 ft 109 kts 189°
2026-04-20 08:39 -35.83574 150.16127 1389 ft 101 kts 193°
2026-04-20 08:39 -35.84360 150.15902 1290 ft 127 kts 195°
2026-04-20 08:39 -35.85219 150.15673 1120 ft 119 kts 189°
2026-04-20 08:39 -35.86101 150.15508 1020 ft 136 kts 188°
2026-04-20 08:40 -35.86953 150.15313 771 ft 114 kts 191°
2026-04-20 08:40 -35.87718 150.15138 420 ft 116 kts 191°
2026-04-20 08:40 -35.88494 150.14926 167 ft 110 kts 192°
2026-04-20 08:40 -35.89165 150.14752 31 ft 84 kts 193°
2026-04-20 08:41 -35.89412 150.14687 31 ft 28 kts 187°
2026-04-20 08:41 -35.89621 150.14636 31 ft 33 kts 192°
2026-04-20 08:41 -35.89857 150.14569 31 ft 36 kts 188°
2026-04-20 08:41 -35.90061 150.14519 33 ft 0 kts 187°
2026-04-20 08:42 -35.90095 150.14515 33 ft 10 kts 187°
2026-04-20 08:42 -35.90200 150.14496 32 ft 15 kts 177°
2026-04-20 08:42 -35.90230 150.14551 34 ft 12 kts 100°
2026-04-20 08:43 -35.90251 150.14646 31 ft 1 kts 145°
2026-04-20 08:43 -35.90252 150.14647 31 ft 0 kts 155°